CPS3166 KMRY-KOAK
Flight info
| Callsign | CPS3166 |
|---|---|
| Flight time | N/A |
| Altitude | 11000 |
| Route | SNS V111 KARNN/N0198F100 V301 SUNOL |
| Aircraft | C408/M-SDFGRY/S |
Departure
| Time | 2026-04-28 15:45 |
|---|---|
| Airport | Monterey Regional Airport (KMRY) |
Arrival
| Time | N/A |
|---|---|
| Airport | San Francisco Bay Oakland International Airport (KOAK) |
| Time | Latitude | Longitude | Altitude | Speed | Heading |
|---|---|---|---|---|---|
| 2026-04-28 15:25 | 36.58758 | -121.83914 | 209 ft | 0 kts | 295° |
| 2026-04-28 15:39 | 36.58783 | -121.83979 | 206 ft | 14 kts | 295° |
| 2026-04-28 15:39 | 36.58786 | -121.83989 | 206 ft | 0 kts | 289° |
| 2026-04-28 15:39 | 36.58785 | -121.84018 | 206 ft | 0 kts | 234° |
| 2026-04-28 15:39 | 36.58755 | -121.84026 | 208 ft | 11 kts | 141° |
| 2026-04-28 15:40 | 36.58709 | -121.83887 | 210 ft | 24 kts | 112° |
| 2026-04-28 15:40 | 36.58676 | -121.83787 | 206 ft | 15 kts | 112° |
| 2026-04-28 15:40 | 36.58664 | -121.83711 | 206 ft | 1 kts | 0° |
| 2026-04-28 15:40 | 36.58672 | -121.83719 | 208 ft | 0 kts | 297° |
| 2026-04-28 15:41 | 36.58670 | -121.83714 | 208 ft | 0 kts | 294° |
| 2026-04-28 15:41 | 36.58675 | -121.83723 | 208 ft | 1 kts | 329° |
| 2026-04-28 15:41 | 36.58670 | -121.83720 | 210 ft | 0 kts | 345° |
| 2026-04-28 15:42 | 36.58677 | -121.83724 | 207 ft | 0 kts | 345° |
| 2026-04-28 15:42 | 36.58677 | -121.83723 | 207 ft | 0 kts | 347° |
| 2026-04-28 15:42 | 36.58674 | -121.83721 | 208 ft | 2 kts | 316° |
| 2026-04-28 15:42 | 36.58667 | -121.83712 | 210 ft | 0 kts | 277° |
| 2026-04-28 15:43 | 36.58661 | -121.83718 | 208 ft | 3 kts | 207° |
| 2026-04-28 15:43 | 36.58659 | -121.83720 | 209 ft | 1 kts | 200° |
| 2026-04-28 15:43 | 36.58639 | -121.83691 | 212 ft | 11 kts | 107° |
| 2026-04-28 15:43 | 36.58589 | -121.83530 | 206 ft | 11 kts | 113° |
| 2026-04-28 15:44 | 36.58554 | -121.83426 | 206 ft | 15 kts | 111° |
| 2026-04-28 15:44 | 36.58535 | -121.83365 | 206 ft | 1 kts | 110° |
| 2026-04-28 15:44 | 36.58497 | -121.83360 | 207 ft | 5 kts | 218° |
| 2026-04-28 15:44 | 36.58522 | -121.83467 | 207 ft | 39 kts | 292° |
| 2026-04-28 15:45 | 36.58732 | -121.84081 | 253 ft | 106 kts | 292° |
| 2026-04-28 15:45 | 36.59057 | -121.85001 | 669 ft | 123 kts | 294° |
| 2026-04-28 15:45 | 36.59413 | -121.85970 | 1318 ft | 124 kts | 294° |
| 2026-04-28 15:45 | 36.59996 | -121.86662 | 1958 ft | 121 kts | 351° |
| 2026-04-28 15:46 | 36.60733 | -121.86262 | 2599 ft | 124 kts | 54° |
| 2026-04-28 15:46 | 36.61005 | -121.85245 | 3187 ft | 126 kts | 84° |
| 2026-04-28 15:46 | 36.61086 | -121.84157 | 3781 ft | 127 kts | 84° |
| 2026-04-28 15:46 | 36.61176 | -121.83008 | 4221 ft | 143 kts | 84° |
| 2026-04-28 15:47 | 36.61282 | -121.81730 | 4696 ft | 151 kts | 85° |
| 2026-04-28 15:47 | 36.61398 | -121.80421 | 5242 ft | 153 kts | 84° |
| 2026-04-28 15:47 | 36.61393 | -121.79099 | 5745 ft | 154 kts | 102° |
| 2026-04-28 15:47 | 36.61171 | -121.77789 | 6283 ft | 156 kts | 102° |
| 2026-04-28 15:48 | 36.61028 | -121.76448 | 6795 ft | 158 kts | 90° |
| 2026-04-28 15:48 | 36.61227 | -121.75111 | 7289 ft | 159 kts | 69° |
| 2026-04-28 15:48 | 36.61653 | -121.73839 | 7787 ft | 160 kts | 65° |
| 2026-04-28 15:48 | 36.62103 | -121.72569 | 8292 ft | 161 kts | 65° |
| 2026-04-28 15:49 | 36.62555 | -121.71288 | 8791 ft | 162 kts | 65° |
| 2026-04-28 15:49 | 36.63008 | -121.69992 | 9293 ft | 164 kts | 65° |
| 2026-04-28 15:49 | 36.63466 | -121.68683 | 9773 ft | 166 kts | 65° |
| 2026-04-28 15:49 | 36.63928 | -121.67361 | 10253 ft | 167 kts | 65° |
| 2026-04-28 15:50 | 36.64396 | -121.66025 | 10683 ft | 169 kts | 65° |
| 2026-04-28 15:50 | 36.64874 | -121.64657 | 10983 ft | 181 kts | 65° |
| 2026-04-28 15:50 | 36.65406 | -121.63130 | 11005 ft | 201 kts | 65° |
| 2026-04-28 15:50 | 36.65956 | -121.61557 | 10991 ft | 195 kts | 64° |
| 2026-04-28 15:51 | 36.66759 | -121.60217 | 10989 ft | 194 kts | 40° |
| 2026-04-28 15:51 | 36.67886 | -121.59321 | 10991 ft | 192 kts | 25° |
| 2026-04-28 15:51 | 36.69010 | -121.58587 | 10999 ft | 192 kts | 26° |
| 2026-04-28 15:51 | 36.70195 | -121.57802 | 10994 ft | 193 kts | 26° |
| 2026-04-28 15:52 | 36.71366 | -121.57028 | 10996 ft | 193 kts | 26° |
| 2026-04-28 15:52 | 36.72554 | -121.56242 | 10993 ft | 194 kts | 26° |
| 2026-04-28 15:52 | 36.73743 | -121.55456 | 10993 ft | 193 kts | 26° |
| 2026-04-28 15:52 | 36.74929 | -121.54671 | 10991 ft | 193 kts | 26° |
| 2026-04-28 15:53 | 36.76118 | -121.53884 | 10996 ft | 194 kts | 26° |
| 2026-04-28 15:53 | 36.77306 | -121.53098 | 10997 ft | 194 kts | 26° |
| 2026-04-28 15:53 | 36.78496 | -121.52310 | 10995 ft | 194 kts | 26° |
| 2026-04-28 15:53 | 36.79689 | -121.51520 | 11022 ft | 194 kts | 26° |
| 2026-04-28 15:54 | 36.80884 | -121.50727 | 11021 ft | 195 kts | 26° |
| 2026-04-28 15:54 | 36.81693 | -121.50190 | 11021 ft | 195 kts | 26° |
| 2026-04-28 15:54 | 36.82891 | -121.49396 | 11024 ft | 195 kts | 26° |
| 2026-04-28 15:54 | 36.84090 | -121.48601 | 11023 ft | 195 kts | 26° |
| 2026-04-28 15:55 | 36.85288 | -121.47805 | 11018 ft | 195 kts | 26° |
| 2026-04-28 15:55 | 36.86483 | -121.47012 | 11018 ft | 194 kts | 27° |
| 2026-04-28 15:55 | 36.87677 | -121.46219 | 11019 ft | 195 kts | 26° |
| 2026-04-28 15:55 | 36.88872 | -121.45425 | 11018 ft | 194 kts | 26° |
| 2026-04-28 15:56 | 36.90049 | -121.44643 | 11019 ft | 194 kts | 27° |
| 2026-04-28 15:56 | 36.91243 | -121.43849 | 11018 ft | 195 kts | 27° |
| 2026-04-28 15:56 | 36.92439 | -121.43054 | 11019 ft | 195 kts | 27° |
| 2026-04-28 15:56 | 36.93633 | -121.42259 | 11018 ft | 194 kts | 27° |
| 2026-04-28 15:57 | 36.94827 | -121.41464 | 11018 ft | 194 kts | 27° |
| 2026-04-28 15:57 | 36.96019 | -121.40670 | 11020 ft | 194 kts | 27° |
| 2026-04-28 15:57 | 36.97216 | -121.39873 | 11014 ft | 195 kts | 27° |
| 2026-04-28 15:57 | 36.98411 | -121.39077 | 11014 ft | 194 kts | 27° |
| 2026-04-28 15:58 | 36.99606 | -121.38280 | 11014 ft | 194 kts | 27° |
| 2026-04-28 15:58 | 37.00801 | -121.37484 | 11014 ft | 195 kts | 27° |
| 2026-04-28 15:58 | 37.01997 | -121.36686 | 11011 ft | 195 kts | 27° |
| 2026-04-28 15:58 | 37.03195 | -121.35886 | 11011 ft | 195 kts | 27° |
| 2026-04-28 15:59 | 37.04395 | -121.35086 | 11007 ft | 195 kts | 27° |
| 2026-04-28 15:59 | 37.05591 | -121.34287 | 11008 ft | 195 kts | 27° |
| 2026-04-28 15:59 | 37.06788 | -121.33488 | 11004 ft | 195 kts | 27° |
| 2026-04-28 15:59 | 37.07987 | -121.32686 | 11005 ft | 196 kts | 27° |
| 2026-04-28 16:00 | 37.09189 | -121.31882 | 11000 ft | 196 kts | 27° |
| 2026-04-28 16:00 | 37.10389 | -121.31080 | 10996 ft | 195 kts | 27° |
| 2026-04-28 16:00 | 37.11590 | -121.30276 | 10995 ft | 196 kts | 27° |
| 2026-04-28 16:00 | 37.12792 | -121.29472 | 10989 ft | 195 kts | 27° |
| 2026-04-28 16:01 | 37.14059 | -121.28911 | 10979 ft | 193 kts | 6° |
| 2026-04-28 16:01 | 37.15393 | -121.28994 | 10973 ft | 192 kts | 345° |
| 2026-04-28 16:01 | 37.16596 | -121.29687 | 10975 ft | 191 kts | 323° |
| 2026-04-28 16:01 | 37.17580 | -121.30791 | 10975 ft | 190 kts | 315° |
| 2026-04-28 16:02 | 37.18549 | -121.31914 | 10972 ft | 190 kts | 316° |
| 2026-04-28 16:02 | 37.19520 | -121.33038 | 10973 ft | 190 kts | 316° |
| 2026-04-28 16:02 | 37.20491 | -121.34166 | 10973 ft | 190 kts | 316° |
| 2026-04-28 16:02 | 37.21466 | -121.35298 | 10974 ft | 191 kts | 315° |
| 2026-04-28 16:03 | 37.22442 | -121.36432 | 10972 ft | 191 kts | 315° |
| 2026-04-28 16:03 | 37.23417 | -121.37565 | 10969 ft | 191 kts | 315° |
| 2026-04-28 16:03 | 37.24390 | -121.38696 | 10965 ft | 191 kts | 316° |
| 2026-04-28 16:03 | 37.25363 | -121.39827 | 10960 ft | 191 kts | 316° |
| 2026-04-28 16:04 | 37.26335 | -121.40957 | 10958 ft | 190 kts | 315° |
| 2026-04-28 16:04 | 37.27306 | -121.42088 | 10967 ft | 190 kts | 316° |
| 2026-04-28 16:04 | 37.28278 | -121.43220 | 10973 ft | 191 kts | 316° |
| 2026-04-28 16:04 | 37.29251 | -121.44353 | 10975 ft | 190 kts | 316° |
| 2026-04-28 16:05 | 37.30220 | -121.45481 | 10973 ft | 190 kts | 316° |
| 2026-04-28 16:05 | 37.31188 | -121.46611 | 10977 ft | 190 kts | 316° |
| 2026-04-28 16:05 | 37.32147 | -121.47728 | 10981 ft | 191 kts | 316° |
| 2026-04-28 16:05 | 37.33122 | -121.48864 | 10983 ft | 191 kts | 316° |
| 2026-04-28 16:06 | 37.34098 | -121.50002 | 10988 ft | 191 kts | 316° |
| 2026-04-28 16:06 | 37.35075 | -121.51141 | 10987 ft | 191 kts | 316° |
| 2026-04-28 16:06 | 37.36051 | -121.52280 | 10991 ft | 191 kts | 316° |
| 2026-04-28 16:06 | 37.37033 | -121.53426 | 10992 ft | 189 kts | 316° |
| 2026-04-28 16:07 | 37.37996 | -121.54550 | 10995 ft | 189 kts | 316° |
| 2026-04-28 16:07 | 37.38958 | -121.55675 | 10996 ft | 189 kts | 316° |
| 2026-04-28 16:07 | 37.40868 | -121.57908 | 10997 ft | 189 kts | 316° |
| 2026-04-28 16:08 | 37.41830 | -121.59034 | 10998 ft | 189 kts | 316° |
| 2026-04-28 16:08 | 37.42791 | -121.60158 | 11000 ft | 189 kts | 316° |
| 2026-04-28 16:08 | 37.43752 | -121.61284 | 11000 ft | 189 kts | 316° |
| 2026-04-28 16:09 | 37.45672 | -121.63533 | 11002 ft | 188 kts | 316° |
| 2026-04-28 16:09 | 37.46630 | -121.64655 | 11002 ft | 189 kts | 317° |
| 2026-04-28 16:09 | 37.47590 | -121.65776 | 11023 ft | 188 kts | 317° |
| 2026-04-28 16:10 | 37.49514 | -121.68023 | 11019 ft | 189 kts | 317° |
| 2026-04-28 16:10 | 37.50474 | -121.69151 | 11021 ft | 189 kts | 317° |
| 2026-04-28 16:10 | 37.52395 | -121.71410 | 11011 ft | 189 kts | 317° |
| 2026-04-28 16:11 | 37.54294 | -121.73654 | 10216 ft | 189 kts | 317° |
| 2026-04-28 16:11 | 37.56073 | -121.75781 | 9504 ft | 187 kts | 317° |
| 2026-04-28 16:12 | 37.57950 | -121.78043 | 8764 ft | 186 kts | 317° |
| 2026-04-28 16:12 | 37.58265 | -121.78426 | 8639 ft | 186 kts | 316° |